Time;durP1;ratioP1;P1;durP2;ratioP2;P2;SDS_P1;SDS_P2;PMS_P1;PMS_P2;Temp;Humidity;BMP_temperature;BMP_pressure;BME280_temperature;BME280_humidity;BME280_pressure;Samples;Min_cycle;Max_cycle;Signal;HPM_P1;HPM_P2
2023/03/10 00:02:56;;;;;;;7.10;6.20;;;22.00;55.10;;;;;;222090;1257;23911;-43
2023/03/10 00:08:00;;;;;;;7.00;6.30;;;22.40;54.10;;;;;;222156;1263;23010;-43
2023/03/10 00:13:04;;;;;;;6.90;5.90;;;22.70;53.40;;;;;;223142;1266;22509;-45
2023/03/10 00:18:08;;;;;;;8.60;6.40;;;22.90;53.50;;;;;;222017;1264;23904;-44
2023/03/10 00:23:12;;;;;;;8.90;6.40;;;22.90;53.00;;;;;;222748;1258;22551;-44
2023/03/10 00:28:16;;;;;;;6.40;5.80;;;23.00;52.90;;;;;;222318;1260;22507;-46
2023/03/10 00:33:20;;;;;;;7.50;6.00;;;23.10;52.00;;;;;;221955;1263;22610;-46
2023/03/10 00:38:24;;;;;;;8.20;5.90;;;23.10;52.80;;;;;;221984;1263;23410;-46
2023/03/10 00:43:28;;;;;;;6.90;6.30;;;23.10;52.80;;;;;;222241;1257;22660;-45
2023/03/10 00:48:33;;;;;;;6.60;5.90;;;23.10;52.60;;;;;;222107;1263;23112;-46
2023/03/10 00:53:39;;;;;;;6.40;5.80;;;23.10;52.50;;;;;;221763;1264;25067;-47
2023/03/10 00:58:44;;;;;;;6.10;5.50;;;23.20;52.50;;;;;;226109;1255;22572;-43
2023/03/10 01:03:50;;;;;;;6.30;5.70;;;23.40;52.50;;;;;;221991;1266;25367;-41
2023/03/10 01:08:54;;;;;;;7.10;5.60;;;23.30;52.00;;;;;;222200;1263;22535;-40
2023/03/10 01:14:02;;;;;;;8.10;5.90;;;23.30;52.30;;;;;;221916;1263;22627;-41
2023/03/10 01:19:06;;;;;;;6.30;5.70;;;23.40;52.20;;;;;;228418;1263;26657;-42
2023/03/10 01:24:14;;;;;;;8.00;6.60;;;23.40;51.60;;;;;;225948;1267;22529;-43
2023/03/10 01:29:18;;;;;;;7.30;6.00;;;23.40;51.50;;;;;;222274;1256;22515;-41
2023/03/10 01:34:22;;;;;;;6.80;6.00;;;23.40;51.50;;;;;;221719;1263;22512;-41
2023/03/10 01:39:27;;;;;;;5.90;5.30;;;23.30;51.80;;;;;;226243;1253;22517;-42
2023/03/10 01:44:31;;;;;;;6.70;5.80;;;23.10;51.90;;;;;;222099;1264;22512;-40
2023/03/10 01:49:41;;;;;;;6.30;5.40;;;22.90;52.10;;;;;;222309;1257;22577;-42
2023/03/10 01:54:55;;;;;;;7.20;6.00;;;22.80;52.60;;;;;;222137;1263;22688;-41
2023/03/10 02:00:00;;;;;;;6.10;5.50;;;22.70;52.70;;;;;;221954;1256;23954;-43
2023/03/10 02:05:07;;;;;;;6.50;5.80;;;22.50;52.90;;;;;;222296;1260;24604;-41
2023/03/10 02:10:13;;;;;;;6.10;5.50;;;22.50;52.90;;;;;;221969;1270;25383;-41
2023/03/10 02:15:17;;;;;;;6.00;5.40;;;22.40;53.10;;;;;;221720;1264;24214;-42
2023/03/10 02:20:28;;;;;;;6.70;5.90;;;22.40;53.00;;;;;;229341;1262;209115;-41
2023/03/10 02:25:33;;;;;;;;;;;22.40;52.80;;;;;;225813;1257;23979;-41
2023/03/10 02:30:42;;;;;;;6.20;5.60;;;22.50;52.60;;;;;;224540;1267;22507;-44
2023/03/10 02:35:46;;;;;;;6.50;5.60;;;22.40;52.80;;;;;;222238;1257;24384;-41
2023/03/10 02:40:56;;;;;;;7.00;5.60;;;22.10;53.00;;;;;;222209;1263;25237;-40
2023/03/10 02:46:04;;;;;;;7.20;6.30;;;22.10;53.50;;;;;;222394;1263;24301;-41
2023/03/10 02:51:14;;;;;;;7.30;5.90;;;22.00;53.60;;;;;;221998;1256;22523;-43
2023/03/10 02:56:19;;;;;;;6.60;6.00;;;21.90;53.50;;;;;;222329;1257;22512;-40
2023/03/10 03:01:25;;;;;;;6.60;5.80;;;21.90;53.50;;;;;;222371;1269;25600;-43
2023/03/10 03:06:30;;;;;;;6.10;5.30;;;21.90;53.80;;;;;;222109;1257;25443;-42
2023/03/10 03:11:35;;;;;;;6.20;5.40;;;21.80;53.70;;;;;;222367;1258;22511;-41
2023/03/10 03:16:40;;;;;;;6.40;5.80;;;21.80;53.70;;;;;;221978;1260;25300;-40
2023/03/10 03:21:48;;;;;;;5.80;5.30;;;22.10;53.80;;;;;;220927;1255;24242;-42
2023/03/10 03:26:53;;;;;;;6.90;5.60;;;22.40;53.10;;;;;;220965;1271;25375;-41
2023/03/10 03:32:01;;;;;;;6.30;5.70;;;22.60;52.60;;;;;;221202;1264;22991;-41
2023/03/10 03:37:08;;;;;;;5.50;5.00;;;23.00;51.80;;;;;;221157;1262;22599;-43
2023/03/10 03:42:14;;;;;;;5.90;5.30;;;23.00;51.50;;;;;;222259;1257;22512;-41
2023/03/10 03:47:21;;;;;;;5.70;5.10;;;23.00;51.50;;;;;;222278;1257;22588;-41
2023/03/10 03:52:25;;;;;;;5.60;5.00;;;23.00;51.40;;;;;;222236;1248;22630;-41
2023/03/10 03:57:31;;;;;;;5.40;4.90;;;23.00;51.40;;;;;;222237;1257;22556;-42
2023/03/10 04:02:35;;;;;;;5.80;5.30;;;23.10;51.70;;;;;;222344;1258;22626;-59
2023/03/10 04:07:41;;;;;;;5.30;4.80;;;23.10;51.20;;;;;;222386;1261;24218;-56
2023/03/10 04:12:46;;;;;;;5.40;4.90;;;23.20;51.10;;;;;;221939;1264;24234;-57
2023/03/10 04:17:50;;;;;;;5.00;4.50;;;23.30;51.00;;;;;;223664;1258;24366;-57
2023/03/10 04:22:55;;;;;;;4.70;4.30;;;23.30;50.80;;;;;;227699;1261;22528;-54
2023/03/10 04:28:04;;;;;;;5.00;4.60;;;23.50;50.40;;;;;;222299;1255;24081;-60
2023/03/10 04:33:09;;;;;;;5.40;4.50;;;23.50;50.30;;;;;;222287;1264;25603;-61
2023/03/10 04:38:13;;;;;;;5.40;4.80;;;23.50;50.40;;;;;;221954;1264;24259;-57
2023/03/10 04:43:18;;;;;;;5.00;4.50;;;23.50;50.50;;;;;;222055;1256;25236;-59
2023/03/10 04:48:23;;;;;;;5.10;4.70;;;23.50;50.60;;;;;;221979;1258;24208;-59
2023/03/10 04:53:28;;;;;;;4.10;3.70;;;23.50;50.50;;;;;;221897;1256;24252;-58
2023/03/10 04:58:34;;;;;;;4.30;3.90;;;23.60;50.50;;;;;;222130;1257;22525;-59
2023/03/10 05:03:38;;;;;;;5.40;4.00;;;23.60;50.60;;;;;;221883;1257;26656;-59
2023/03/10 05:08:44;;;;;;;3.90;3.50;;;23.50;50.50;;;;;;222031;1256;22512;-59
2023/03/10 05:13:49;;;;;;;4.20;3.80;;;23.50;50.60;;;;;;222014;1257;24218;-61
2023/03/10 05:18:53;;;;;;;4.80;3.80;;;23.50;50.60;;;;;;222004;1256;22598;-60
2023/03/10 05:24:01;;;;;;;6.30;4.60;;;23.30;51.30;;;;;;221913;1256;22636;-60
2023/03/10 05:29:05;;;;;;;4.40;4.00;;;23.10;51.10;;;;;;221799;1256;22515;-54
2023/03/10 05:34:14;;;;;;;3.80;3.50;;;23.00;51.50;;;;;;222034;1264;22514;-58
2023/03/10 05:39:18;;;;;;;4.10;3.70;;;22.90;51.80;;;;;;222022;1256;22588;-59
2023/03/10 05:44:26;;;;;;;4.00;3.70;;;22.90;52.00;;;;;;222054;1257;22522;-58
2023/03/10 05:49:30;;;;;;;3.90;3.60;;;22.80;51.70;;;;;;222076;1257;22635;-57
2023/03/10 05:54:35;;;;;;;4.20;3.80;;;22.70;51.80;;;;;;222060;1263;22522;-56
2023/03/10 05:59:40;;;;;;;3.80;3.50;;;22.60;52.20;;;;;;221976;1256;22515;-58
2023/03/10 06:04:44;;;;;;;5.40;3.30;;;22.50;52.00;;;;;;222073;1257;25459;-58
2023/03/10 06:09:48;;;;;;;3.80;3.50;;;22.40;52.20;;;;;;222094;1256;22518;-60
2023/03/10 06:14:53;;;;;;;3.80;3.50;;;22.40;52.30;;;;;;222123;1257;22508;-59
2023/03/10 06:19:58;;;;;;;3.70;3.40;;;22.30;52.70;;;;;;222347;1256;22527;-59
2023/03/10 06:25:02;;;;;;;3.50;3.20;;;22.30;53.00;;;;;;222152;1256;23968;-58
2023/03/10 06:30:07;;;;;;;4.20;3.30;;;22.30;52.70;;;;;;222238;1263;22522;-58
2023/03/10 06:35:14;;;;;;;3.50;3.20;;;22.20;53.50;;;;;;222182;1257;25410;-58
2023/03/10 06:40:19;;;;;;;6.50;3.40;;;22.20;52.70;;;;;;222153;1247;22851;-57
2023/03/10 06:45:22;;;;;;;3.40;2.90;;;22.10;52.80;;;;;;222098;1256;22514;-54
2023/03/10 06:50:27;;;;;;;3.30;3.00;;;22.10;53.00;;;;;;222062;1257;22534;-56
2023/03/10 06:55:33;;;;;;;3.30;2.90;;;22.00;53.00;;;;;;222161;1264;22652;-57
2023/03/10 07:00:38;;;;;;;4.30;3.00;;;22.00;53.80;;;;;;222114;1256;25376;-56
2023/03/10 07:05:42;;;;;;;5.70;3.00;;;22.00;53.70;;;;;;222068;1257;22513;-53
2023/03/10 07:10:47;;;;;;;7.80;3.20;;;22.00;54.00;;;;;;222190;1256;22512;-54
2023/03/10 07:15:53;;;;;;;2.90;2.30;;;21.90;53.50;;;;;;222117;1264;22982;-55
2023/03/10 07:20:57;;;;;;;3.20;2.90;;;22.00;53.70;;;;;;222172;1264;24228;-56
2023/03/10 07:26:01;;;;;;;4.40;2.90;;;22.00;53.50;;;;;;221942;1256;22498;-51
2023/03/10 07:31:09;;;;;;;4.60;3.10;;;22.10;53.40;;;;;;221955;1258;24794;-55
2023/03/10 07:36:17;;;;;;;6.50;2.60;;;22.00;53.50;;;;;;222033;1256;22537;-55
2023/03/10 07:41:21;;;;;;;5.50;2.90;;;22.00;53.90;;;;;;222190;1256;22798;-52
2023/03/10 07:46:25;;;;;;;4.20;3.00;;;21.90;54.10;;;;;;222132;1257;24241;-53
2023/03/10 07:51:30;;;;;;;4.40;3.00;;;21.90;54.20;;;;;;221889;1259;22523;-53
2023/03/10 07:56:34;;;;;;;7.30;3.10;;;21.70;54.40;;;;;;222337;1256;22508;-54
2023/03/10 08:01:39;;;;;;;5.80;3.20;;;21.80;54.40;;;;;;222154;1256;22596;-59
2023/03/10 08:06:43;;;;;;;6.00;2.70;;;21.90;54.50;;;;;;221754;1256;22511;-53
2023/03/10 08:11:47;;;;;;;4.80;2.80;;;21.80;54.40;;;;;;221947;1257;23856;-55
2023/03/10 08:16:52;;;;;;;6.10;3.10;;;21.80;54.60;;;;;;221999;1256;24204;-54
2023/03/10 08:21:56;;;;;;;7.10;3.00;;;21.70;54.20;;;;;;222500;1267;22573;-54
2023/03/10 08:27:00;;;;;;;9.80;3.30;;;21.70;54.10;;;;;;222607;1256;22524;-55
2023/03/10 08:32:05;;;;;;;8.80;3.00;;;22.00;54.20;;;;;;221886;1248;22518;-50
2023/03/10 08:37:10;;;;;;;5.00;3.60;;;22.20;53.30;;;;;;221886;1264;22521;-55
2023/03/10 08:42:14;;;;;;;4.30;3.60;;;22.10;51.60;;;;;;222042;1269;24208;-56
2023/03/10 08:47:19;;;;;;;7.70;3.70;;;21.60;50.80;;;;;;222077;1254;22593;-45
2023/03/10 08:52:23;;;;;;;4.40;3.50;;;22.10;51.80;;;;;;222081;1257;23500;-53
2023/03/10 08:57:27;;;;;;;4.60;3.20;;;22.30;51.30;;;;;;221983;1256;23913;-50
2023/03/10 09:02:32;;;;;;;4.80;3.00;;;22.40;51.10;;;;;;221991;1263;23933;-52
2023/03/10 09:07:36;;;;;;;4.10;3.40;;;22.50;51.10;;;;;;221695;1258;22721;-61
2023/03/10 09:12:40;;;;;;;6.80;3.40;;;22.60;51.30;;;;;;221719;1249;24321;-57
2023/03/10 09:17:44;;;;;;;4.10;3.00;;;22.60;51.10;;;;;;221789;1256;23175;-59
2023/03/10 09:22:48;;;;;;;4.70;3.30;;;22.80;50.90;;;;;;220600;1267;24196;-58
2023/03/10 09:27:52;;;;;;;7.20;3.30;;;22.90;50.90;;;;;;220653;1269;25354;-56
2023/03/10 09:32:57;;;;;;;4.50;2.60;;;23.00;50.80;;;;;;220498;1262;23077;-56
2023/03/10 09:38:03;;;;;;;5.60;3.30;;;23.00;51.00;;;;;;220726;1265;23937;-57
2023/03/10 09:43:16;;;;;;;6.70;3.10;;;23.10;50.60;;;;;;220555;1271;24188;-55
2023/03/10 09:48:40;;;;;;;3.00;2.60;;;23.20;50.60;;;;;;221696;1263;24434;-53
2023/03/10 09:53:47;;;;;;;2.70;2.50;;;23.30;50.50;;;;;;222042;1265;24036;-61
2023/03/10 09:59:01;;;;;;;3.10;2.80;;;23.30;50.50;;;;;;222130;1263;22563;-62
2023/03/10 10:04:24;;;;;;;6.40;2.70;;;23.30;50.50;;;;;;222087;1262;22523;-51
2023/03/10 10:09:42;;;;;;;4.60;2.70;;;23.40;50.60;;;;;;220784;1265;22611;-58
2023/03/10 10:14:46;;;;;;;2.40;2.20;;;23.40;50.70;;;;;;220685;1271;22524;-59
2023/03/10 10:20:05;;;;;;;3.40;2.30;;;23.50;50.30;;;;;;220867;1271;22528;-54
2023/03/10 10:25:12;;;;;;;3.80;2.30;;;23.50;50.00;;;;;;221116;1262;22518;-59
2023/03/10 10:30:34;;;;;;;2.20;2.00;;;23.60;50.00;;;;;;222376;1263;22649;-56
2023/03/10 10:36:00;;;;;;;4.60;2.30;;;23.70;49.90;;;;;;221964;1265;24199;-58
2023/03/10 10:41:16;;;;;;;2.50;2.30;;;23.70;49.70;;;;;;221848;1247;22643;-59
2023/03/10 10:46:27;;;;;;;5.00;2.50;;;23.90;50.00;;;;;;222143;1263;22510;-59
2023/03/10 10:51:36;;;;;;;4.20;2.70;;;23.80;50.20;;;;;;222137;1256;24206;-58
2023/03/10 10:56:51;;;;;;;2.50;2.10;;;23.80;49.80;;;;;;222393;1257;22504;-58
2023/03/10 11:01:59;;;;;;;2.30;2.10;;;23.80;49.90;;;;;;222072;1256;25489;-54
2023/03/10 11:07:10;;;;;;;2.80;2.30;;;23.70;49.90;;;;;;222076;1256;24427;-57
2023/03/10 11:12:32;;;;;;;3.00;1.90;;;23.70;50.00;;;;;;222197;1266;22521;-56
2023/03/10 11:17:47;;;;;;;2.50;2.00;;;23.60;50.60;;;;;;222147;1263;24732;-49
2023/03/10 11:23:23;;;;;;;3.00;2.30;;;23.60;50.40;;;;;;222308;1263;22521;-50
2023/03/10 11:28:27;;;;;;;2.30;2.00;;;23.60;50.80;;;;;;222252;1263;22504;-57
2023/03/10 11:33:44;;;;;;;2.00;1.90;;;23.30;50.60;;;;;;222183;1263;25433;-58
2023/03/10 11:38:51;;;;;;;3.10;1.90;;;23.30;51.00;;;;;;222213;1257;24939;-53
2023/03/10 11:43:59;;;;;;;2.50;2.30;;;23.30;51.40;;;;;;221019;1268;22518;-56
2023/03/10 11:49:09;;;;;;;2.30;1.90;;;23.20;52.00;;;;;;220987;1262;23797;-56
2023/03/10 11:54:44;;;;;;;2.60;2.10;;;23.30;51.30;;;;;;220985;1270;22769;-58
2023/03/10 11:59:56;;;;;;;2.90;2.30;;;23.10;51.60;;;;;;221258;1270;24243;-53
2023/03/10 12:05:06;;;;;;;2.50;2.20;;;23.20;52.30;;;;;;222235;1259;22526;-55
2023/03/10 12:10:11;;;;;;;3.20;2.30;;;23.00;53.00;;;;;;222138;1263;22508;-59
2023/03/10 12:15:35;;;;;;;1.90;1.80;;;23.00;53.30;;;;;;222393;1263;22550;-54
2023/03/10 12:20:39;;;;;;;3.30;1.90;;;22.70;54.50;;;;;;222244;1263;22511;-57
2023/03/10 12:25:44;;;;;;;2.00;1.90;;;22.70;55.10;;;;;;222210;1256;24378;-54
2023/03/10 12:30:57;;;;;;;3.80;2.00;;;22.60;56.10;;;;;;222238;1263;25252;-55
2023/03/10 12:36:32;;;;;;;2.60;2.00;;;22.50;57.10;;;;;;222188;1263;25341;-53
2023/03/10 12:41:47;;;;;;;2.00;1.80;;;22.50;56.90;;;;;;222233;1263;23925;-57
2023/03/10 12:46:58;;;;;;;2.60;2.40;;;22.50;57.80;;;;;;222021;1266;22526;-53
2023/03/10 12:52:28;;;;;;;2.20;1.90;;;22.50;58.50;;;;;;222177;1263;22541;-54
2023/03/10 12:58:17;;;;;;;2.90;2.50;;;22.50;58.90;;;;;;222193;1263;22514;-57
2023/03/10 13:03:41;;;;;;;2.70;2.00;;;22.40;60.10;;;;;;222034;1257;22521;-54
2023/03/10 13:09:27;;;;;;;2.20;2.00;;;22.40;59.90;;;;;;222115;1254;22559;-55
2023/03/10 13:14:35;;;;;;;1.90;1.80;;;22.30;60.50;;;;;;221007;1256;23910;-53
2023/03/10 13:19:39;;;;;;;2.20;2.00;;;22.30;60.70;;;;;;221067;1269;22507;-49
2023/03/10 13:24:57;;;;;;;1.90;1.80;;;22.30;60.50;;;;;;221095;1269;22636;-52
2023/03/10 13:30:11;;;;;;;2.10;1.90;;;22.30;61.20;;;;;;220958;1267;22515;-53
2023/03/10 13:35:32;;;;;;;2.20;2.00;;;22.30;61.10;;;;;;221022;1261;24842;-55
2023/03/10 13:40:42;;;;;;;2.20;2.00;;;22.20;61.50;;;;;;220992;1268;22642;-54
2023/03/10 13:45:53;;;;;;;2.60;1.90;;;22.10;61.90;;;;;;221805;1267;22564;-54
2023/03/10 13:51:16;;;;;;;;;;;22.20;61.20;;;;;;221113;1268;25857;-55
2023/03/10 13:56:23;;;;;;;2.00;1.90;;;22.20;61.90;;;;;;221164;1269;24437;-46
2023/03/10 14:01:33;;;;;;;2.80;2.50;;;22.20;60.90;;;;;;220978;1269;23154;-53
2023/03/10 14:06:37;;;;;;;2.10;2.00;;;22.20;61.10;;;;;;221280;1263;24253;-56
2023/03/10 14:11:44;;;;;;;3.10;2.10;;;22.20;61.20;;;;;;222278;1260;22607;-54
2023/03/10 14:16:54;;;;;;;2.50;2.10;;;22.20;61.20;;;;;;221908;1263;213518;-55
2023/03/10 14:21:58;;;;;;;2.00;1.80;;;22.10;61.30;;;;;;222176;1263;24284;-53
2023/03/10 14:27:09;;;;;;;2.50;2.10;;;22.10;61.50;;;;;;221808;1263;24257;-55
2023/03/10 14:32:13;;;;;;;1.90;1.80;;;22.10;61.50;;;;;;222079;1263;24218;-44
2023/03/10 14:38:04;;;;;;;2.10;1.90;;;22.10;61.40;;;;;;222159;1263;24174;-54
2023/03/10 14:50:15;;;;;;;2.90;1.70;;;22.10;61.50;;;;;;222033;1252;24355;-49
2023/03/10 14:55:22;;;;;;;2.90;1.90;;;22.10;61.30;;;;;;222224;1263;22514;-47
2023/03/10 15:00:26;;;;;;;3.00;1.90;;;22.20;60.70;;;;;;229880;1270;22159;-52
2023/03/10 15:05:31;;;;;;;2.60;2.00;;;22.30;60.20;;;;;;225311;1254;24368;-47
2023/03/10 15:10:51;;;;;;;2.60;2.40;;;22.50;59.60;;;;;;222979;1269;24351;-44
2023/03/10 15:15:56;;;;;;;2.40;2.20;;;22.40;59.70;;;;;;222222;1263;25258;-53
2023/03/10 15:21:02;;;;;;;15.30;2.50;;;22.30;60.20;;;;;;222227;1266;23672;-48
2023/03/10 15:26:09;;;;;;;10.80;2.00;;;22.10;60.60;;;;;;222141;1256;24257;-52
2023/03/10 15:31:13;;;;;;;5.80;2.20;;;22.10;60.90;;;;;;222047;1262;22504;-50
2023/03/10 15:36:18;;;;;;;3.20;2.10;;;22.10;60.80;;;;;;222193;1257;22522;-53
2023/03/10 15:41:22;;;;;;;7.60;2.00;;;22.00;61.90;;;;;;221939;1257;22588;-52
2023/03/10 15:46:27;;;;;;;3.50;2.20;;;22.00;61.30;;;;;;222100;1257;22515;-51
2023/03/10 15:51:31;;;;;;;3.00;1.70;;;21.90;62.10;;;;;;222130;1263;24052;-50
2023/03/10 15:56:35;;;;;;;6.90;2.40;;;22.00;61.60;;;;;;221944;1263;23932;-50
2023/03/10 16:01:39;;;;;;;7.50;2.20;;;22.10;61.30;;;;;;222241;1254;22514;-56
2023/03/10 16:06:44;;;;;;;4.50;2.10;;;22.00;61.90;;;;;;221970;1263;22951;-42
2023/03/10 16:11:48;;;;;;;4.00;2.40;;;22.00;61.90;;;;;;221981;1248;24669;-50
2023/03/10 16:16:52;;;;;;;3.60;2.50;;;22.10;62.40;;;;;;221920;1256;25386;-47
2023/03/10 16:21:56;;;;;;;2.90;2.00;;;22.10;61.60;;;;;;221954;1263;22605;-49
2023/03/10 16:27:01;;;;;;;2.60;2.30;;;22.10;61.70;;;;;;221787;1257;22761;-51
2023/03/10 16:32:07;;;;;;;6.90;2.90;;;22.20;61.30;;;;;;223515;1263;22526;-53
2023/03/10 16:37:13;;;;;;;6.80;2.30;;;22.10;62.00;;;;;;222637;1263;24167;-60
2023/03/10 16:42:26;;;;;;;10.80;2.10;;;22.00;61.80;;;;;;221951;1263;22527;-49
2023/03/10 16:47:32;;;;;;;6.60;2.30;;;22.10;61.70;;;;;;221822;1263;24225;-58
2023/03/10 16:52:41;;;;;;;4.00;2.70;;;22.10;61.60;;;;;;222133;1269;24246;-59
2023/03/10 16:57:48;;;;;;;5.00;2.30;;;22.10;61.50;;;;;;222198;1263;24208;-57
2023/03/10 17:02:58;;;;;;;4.30;2.20;;;22.10;61.70;;;;;;222032;1266;22508;-57
2023/03/10 17:08:07;;;;;;;4.20;2.60;;;22.40;61.30;;;;;;221900;1263;22541;-58
2023/03/10 17:13:12;;;;;;;3.40;2.40;;;22.50;61.00;;;;;;221944;1266;24300;-58
2023/03/10 17:18:18;;;;;;;5.40;2.30;;;22.70;60.90;;;;;;221616;1257;24432;-58
2023/03/10 17:23:23;;;;;;;2.90;2.20;;;22.80;60.70;;;;;;221818;1266;22562;-61
2023/03/10 17:28:28;;;;;;;2.20;2.00;;;22.90;60.60;;;;;;222115;1266;22524;-56
2023/03/10 17:33:33;;;;;;;2.70;2.20;;;23.00;60.40;;;;;;221946;1248;25439;-61
2023/03/10 17:38:40;;;;;;;4.10;2.30;;;23.20;60.00;;;;;;221659;1266;24145;-60
2023/03/10 17:43:47;;;;;;;3.50;2.60;;;23.20;60.00;;;;;;222016;1263;24349;-59
2023/03/10 17:48:53;;;;;;;2.80;2.20;;;23.20;59.90;;;;;;222010;1263;22640;-59
2023/03/10 17:54:00;;;;;;;6.50;2.70;;;23.30;59.50;;;;;;221895;1266;22514;-60
2023/03/10 17:59:05;;;;;;;6.70;2.00;;;23.30;59.80;;;;;;222038;1266;22778;-56
2023/03/10 18:04:11;;;;;;;3.50;2.00;;;23.40;59.30;;;;;;221746;1263;22514;-63
2023/03/10 18:09:18;;;;;;;768.80;101.10;;;23.40;59.80;;;;;;222479;1263;25389;-58
2023/03/10 18:14:24;;;;;;;94.70;13.00;;;23.40;60.40;;;;;;222098;1253;24230;-54
2023/03/10 18:19:29;;;;;;;59.30;8.90;;;23.50;61.30;;;;;;222313;1262;22987;-52
2023/03/10 18:24:37;;;;;;;48.70;8.40;;;23.40;62.90;;;;;;222083;1263;22518;-53
2023/03/10 18:29:41;;;;;;;49.60;8.20;;;23.40;67.00;;;;;;222226;1263;22514;-53
2023/03/10 18:34:47;;;;;;;42.90;7.60;;;23.40;65.30;;;;;;222075;1259;24374;-55
2023/03/10 18:39:52;;;;;;;46.40;7.00;;;23.40;64.80;;;;;;222139;1260;24292;-54
2023/03/10 18:44:59;;;;;;;32.30;6.30;;;23.40;64.10;;;;;;221813;1263;24189;-53
2023/03/10 18:50:05;;;;;;;33.00;6.30;;;23.30;63.60;;;;;;221924;1257;24192;-54
2023/03/10 18:55:12;;;;;;;34.20;6.80;;;23.20;63.50;;;;;;222033;1263;23968;-51
2023/03/10 19:00:21;;;;;;;26.00;6.30;;;23.40;63.20;;;;;;221992;1263;25349;-52
2023/03/10 19:05:27;;;;;;;28.90;5.40;;;23.30;62.90;;;;;;222071;1256;22521;-55
2023/03/10 19:10:36;;;;;;;28.90;6.10;;;23.20;63.10;;;;;;221966;1260;25600;-55
2023/03/10 19:15:43;;;;;;;39.70;6.00;;;23.20;62.60;;;;;;221782;1267;22512;-53
2023/03/10 19:20:49;;;;;;;327.30;36.40;;;23.10;63.80;;;;;;222373;1257;22624;-55
2023/03/10 19:25:58;;;;;;;70.80;11.10;;;23.10;62.90;;;;;;222162;1256;22765;-58
2023/03/10 19:31:12;;;;;;;63.00;9.60;;;23.00;61.90;;;;;;222000;1263;22581;-57
2023/03/10 19:36:18;;;;;;;43.50;8.30;;;23.10;61.20;;;;;;221938;1263;24164;-55
2023/03/10 19:41:24;;;;;;;40.90;8.40;;;23.00;61.00;;;;;;222071;1263;24240;-54
2023/03/10 19:46:32;;;;;;;39.70;8.20;;;23.00;61.30;;;;;;222076;1263;24234;-54
2023/03/10 19:51:38;;;;;;;41.10;8.70;;;22.80;62.10;;;;;;222182;1257;23761;-58
2023/03/10 19:56:43;;;;;;;38.70;8.40;;;22.70;62.20;;;;;;222230;1258;24194;-55
2023/03/10 20:01:50;;;;;;;35.90;8.80;;;22.70;62.10;;;;;;222150;1259;23896;-51
2023/03/10 20:06:56;;;;;;;41.60;7.40;;;22.60;62.10;;;;;;222130;1263;23881;-52
2023/03/10 20:12:04;;;;;;;23.70;6.40;;;22.60;61.60;;;;;;221831;1259;24304;-53
2023/03/10 20:17:10;;;;;;;26.00;8.20;;;22.60;60.90;;;;;;222088;1257;22633;-52
2023/03/10 20:22:17;;;;;;;39.50;7.20;;;22.70;60.70;;;;;;222182;1256;22518;-56
2023/03/10 20:27:24;;;;;;;25.80;7.10;;;22.60;60.70;;;;;;221762;1270;22540;-54
2023/03/10 20:32:30;;;;;;;28.20;7.70;;;22.50;60.30;;;;;;222125;1270;24193;-54
2023/03/10 20:37:37;;;;;;;29.80;6.30;;;22.40;61.10;;;;;;221695;1257;25294;-52
2023/03/10 20:42:46;;;;;;;22.10;6.50;;;22.40;61.40;;;;;;222122;1268;24995;-53
2023/03/10 20:47:52;;;;;;;25.30;5.60;;;22.30;61.30;;;;;;222181;1270;23021;-50
2023/03/10 20:52:58;;;;;;;27.30;8.00;;;22.40;60.80;;;;;;222247;1263;24062;-54
2023/03/10 20:58:05;;;;;;;21.80;6.70;;;22.30;61.80;;;;;;222089;1264;25526;-58
2023/03/10 21:03:10;;;;;;;29.00;7.30;;;22.30;63.30;;;;;;222435;1267;22781;-54
2023/03/10 21:08:14;;;;;;;17.80;6.50;;;22.30;66.70;;;;;;222421;1269;24217;-57
2023/03/10 21:13:21;;;;;;;24.30;7.20;;;22.50;66.20;;;;;;222362;1257;23116;-57
2023/03/10 21:18:27;;;;;;;19.80;6.70;;;22.40;65.30;;;;;;222107;1263;25411;-50
2023/03/10 21:23:37;;;;;;;22.80;6.60;;;22.30;64.50;;;;;;222264;1264;24320;-54
2023/03/10 21:29:02;;;;;;;21.20;6.60;;;22.30;63.70;;;;;;222262;1263;24324;-54
2023/03/10 21:34:16;;;;;;;15.60;6.90;;;22.20;63.70;;;;;;221864;1270;22528;-55
2023/03/10 21:39:28;;;;;;;;;;;22.30;63.30;;;;;;222193;1270;22500;-55
2023/03/10 21:44:37;;;;;;;18.80;6.70;;;22.10;63.60;;;;;;222361;1266;25489;-54
2023/03/10 21:49:44;;;;;;;20.40;6.40;;;22.10;63.00;;;;;;222235;1264;22638;-42
2023/03/10 21:54:50;;;;;;;17.50;6.50;;;22.20;65.30;;;;;;222438;1247;22518;-53
2023/03/10 21:59:57;;;;;;;13.90;5.50;;;22.20;64.60;;;;;;222245;1264;22510;-54
2023/03/10 22:05:15;;;;;;;14.60;6.00;;;22.10;64.40;;;;;;222172;1264;24202;-57
2023/03/10 22:10:23;;;;;;;15.60;5.50;;;22.10;63.90;;;;;;222144;1260;24294;-57
2023/03/10 22:15:27;;;;;;;22.50;6.50;;;22.20;63.30;;;;;;222258;1264;22515;-58
2023/03/10 22:20:32;;;;;;;15.80;5.00;;;22.30;63.00;;;;;;222395;1264;22805;-59
2023/03/10 22:25:36;;;;;;;13.80;5.40;;;22.20;63.00;;;;;;223632;1257;22535;-59
2023/03/10 22:30:40;;;;;;;11.00;5.30;;;22.30;62.60;;;;;;222308;1263;24814;-59
2023/03/10 22:35:50;;;;;;;11.50;4.80;;;22.30;62.80;;;;;;222414;1256;22525;-61
2023/03/10 22:40:54;;;;;;;15.00;4.70;;;22.20;62.60;;;;;;222247;1257;22534;-60
2023/03/10 22:45:58;;;;;;;12.70;4.40;;;22.20;63.00;;;;;;222271;1253;22530;-60
2023/03/10 22:51:08;;;;;;;11.70;4.20;;;22.00;62.90;;;;;;222341;1258;22507;-57
2023/03/10 22:56:12;;;;;;;11.40;4.60;;;22.00;62.90;;;;;;222193;1258;22579;-56
2023/03/10 23:01:16;;;;;;;12.90;4.50;;;21.90;62.90;;;;;;222254;1257;22649;-57
2023/03/10 23:06:21;;;;;;;9.60;4.00;;;21.90;62.80;;;;;;222302;1263;23883;-59
2023/03/10 23:11:25;;;;;;;9.60;4.40;;;21.80;63.00;;;;;;222379;1258;22601;-61
2023/03/10 23:16:35;;;;;;;9.60;4.10;;;21.80;62.60;;;;;;222521;1258;22571;-62
2023/03/10 23:21:40;;;;;;;10.40;3.70;;;21.80;62.90;;;;;;221933;1267;25453;-61
2023/03/10 23:26:44;;;;;;;8.80;3.60;;;21.70;63.00;;;;;;222286;1260;24267;-58
2023/03/10 23:31:48;;;;;;;10.30;3.60;;;21.70;62.80;;;;;;222323;1264;22517;-60
2023/03/10 23:36:54;;;;;;;11.60;4.20;;;21.70;62.80;;;;;;222306;1260;23941;-56
2023/03/10 23:41:59;;;;;;;8.20;3.40;;;21.70;62.70;;;;;;222203;1257;22521;-59
2023/03/10 23:47:03;;;;;;;9.20;4.10;;;21.60;62.90;;;;;;222269;1264;22776;-58
2023/03/10 23:52:07;;;;;;;6.40;3.50;;;21.60;62.80;;;;;;222182;1257;22525;-58
2023/03/10 23:57:11;;;;;;;9.30;3.90;;;21.60;62.80;;;;;;222364;1262;22621;-54
